createdAt,value
2016-11-28T00:00:07.646Z,72998
2016-11-28T00:00:16.383Z,72997
2016-11-28T00:00:25.099Z,72996
2016-11-28T00:00:33.806Z,72997
2016-11-28T00:00:42.566Z,72998
2016-11-28T00:00:51.282Z,72997
2016-11-28T00:00:59.984Z,72999
2016-11-28T00:01:08.723Z,73002
2016-11-28T00:01:17.499Z,73002
2016-11-28T00:01:26.238Z,73000
2016-11-28T00:01:35.003Z,73002
2016-11-28T00:01:43.713Z,73004
2016-11-28T00:01:52.459Z,72998
2016-11-28T00:02:01.178Z,73005
2016-11-28T00:02:09.881Z,73000
2016-11-28T00:02:18.618Z,73004
2016-11-28T00:02:27.312Z,73004
2016-11-28T00:02:36.004Z,72998
2016-11-28T00:02:44.742Z,72997
2016-11-28T00:02:53.464Z,72999
2016-11-28T00:03:02.180Z,72997
2016-11-28T00:03:10.916Z,72995
2016-11-28T00:03:19.654Z,73000
2016-11-28T00:03:28.354Z,72998
2016-11-28T00:03:37.064Z,72997
2016-11-28T00:03:45.752Z,72997
2016-11-28T00:03:54.469Z,72998
2016-11-28T00:04:03.201Z,72992
2016-11-28T00:04:11.885Z,72999
2016-11-28T00:04:20.605Z,73001
2016-11-28T00:04:29.355Z,72997
2016-11-28T00:04:38.080Z,72998
2016-11-28T00:04:46.792Z,73000
2016-11-28T00:04:55.494Z,72997
2016-11-28T00:05:04.183Z,73003
2016-11-28T00:05:12.906Z,72996
2016-11-28T00:05:21.720Z,72998
2016-11-28T00:05:30.444Z,72999
2016-11-28T00:05:39.159Z,72996
2016-11-28T00:05:47.894Z,72996
2016-11-28T00:05:56.636Z,72996
2016-11-28T00:06:05.347Z,72996
2016-11-28T00:06:14.055Z,72997
2016-11-28T00:06:23.080Z,72998
2016-11-28T00:06:31.813Z,72995
2016-11-28T00:06:40.505Z,72999
2016-11-28T00:06:49.229Z,72993
2016-11-28T00:06:57.887Z,72989
2016-11-28T00:07:06.626Z,72992
2016-11-28T00:07:15.351Z,72992
2016-11-28T00:07:24.092Z,72991
2016-11-28T00:07:33.087Z,72997
2016-11-28T00:07:41.791Z,72996
2016-11-28T00:07:50.498Z,72997
2016-11-28T00:07:59.193Z,72994
2016-11-28T00:08:07.913Z,72992
2016-11-28T00:08:16.609Z,72992
2016-11-28T00:08:25.302Z,72993
2016-11-28T00:08:34.006Z,72992
2016-11-28T00:08:42.704Z,72991
2016-11-28T00:08:51.414Z,72994
2016-11-28T00:09:00.101Z,72996
2016-11-28T00:09:08.838Z,72994
2016-11-28T00:09:17.535Z,72996
2016-11-28T00:09:26.257Z,72997
2016-11-28T00:09:34.988Z,72995
2016-11-28T00:09:43.673Z,72996
2016-11-28T00:09:52.405Z,72998
2016-11-28T00:10:01.063Z,72994
2016-11-28T00:10:09.787Z,72993
2016-11-28T00:10:18.571Z,72991
2016-11-28T00:10:27.245Z,72990
2016-11-28T00:10:35.971Z,72991
2016-11-28T00:10:44.956Z,72991
2016-11-28T00:10:53.715Z,72990
2016-11-28T00:11:02.424Z,72991
2016-11-28T00:11:11.096Z,72986
2016-11-28T00:11:19.798Z,72991
2016-11-28T00:11:28.559Z,72988
2016-11-28T00:11:37.296Z,72991
2016-11-28T00:11:45.968Z,72994
2016-11-28T00:11:54.680Z,72993
2016-11-28T00:12:03.334Z,72992
2016-11-28T00:12:12.036Z,72998
2016-11-28T00:12:20.748Z,72995
2016-11-28T00:12:29.423Z,72996
2016-11-28T00:12:38.147Z,72995
2016-11-28T00:12:46.878Z,72991
2016-11-28T00:12:55.581Z,72991
2016-11-28T00:13:04.315Z,72993
2016-11-28T00:13:12.990Z,72991
2016-11-28T00:13:21.690Z,72995
2016-11-28T00:13:30.410Z,72995
2016-11-28T00:13:39.381Z,72998
2016-11-28T00:13:48.107Z,72995
2016-11-28T00:13:56.802Z,72998
2016-11-28T00:14:05.483Z,72994
2016-11-28T00:14:14.214Z,72996
2016-11-28T00:14:22.944Z,72999
2016-11-28T00:14:31.613Z,72994
2016-11-28T00:14:40.350Z,72992
2016-11-28T00:14:49.073Z,72991
2016-11-28T00:14:57.791Z,72988
2016-11-28T00:15:06.494Z,72990
2016-11-28T00:15:15.229Z,72991
2016-11-28T00:15:23.916Z,72993
2016-11-28T00:15:32.627Z,72993
2016-11-28T00:15:41.366Z,72992
2016-11-28T00:15:50.094Z,72992
2016-11-28T00:15:59.109Z,72992
2016-11-28T00:16:07.788Z,72993
2016-11-28T00:16:16.489Z,72990
2016-11-28T00:16:25.236Z,72995
2016-11-28T00:16:33.946Z,72998
2016-11-28T00:16:42.629Z,72994
2016-11-28T00:16:51.353Z,72995
2016-11-28T00:17:00.064Z,72993
2016-11-28T00:17:08.770Z,72995
2016-11-28T00:17:17.507Z,72997
2016-11-28T00:17:26.230Z,72993
2016-11-28T00:17:34.993Z,72994
2016-11-28T00:17:43.699Z,72998
2016-11-28T00:17:52.430Z,72996
2016-11-28T00:18:01.387Z,72996
2016-11-28T00:18:10.104Z,72998
2016-11-28T00:18:18.816Z,72998
2016-11-28T00:18:27.511Z,72996
2016-11-28T00:18:36.250Z,72996
2016-11-28T00:18:44.977Z,72994
2016-11-28T00:18:53.671Z,72996
2016-11-28T00:19:02.385Z,72998
2016-11-28T00:19:11.128Z,73000
2016-11-28T00:19:19.866Z,73002
2016-11-28T00:19:28.581Z,72998
2016-11-28T00:19:37.273Z,72999
2016-11-28T00:19:45.990Z,73000
2016-11-28T00:19:54.728Z,72998
2016-11-28T00:20:03.459Z,72999
2016-11-28T00:20:12.180Z,72995
2016-11-28T00:20:20.907Z,72997
2016-11-28T00:20:29.602Z,72997
2016-11-28T00:20:38.306Z,72999
2016-11-28T00:20:46.988Z,72994
2016-11-28T00:20:55.707Z,73000
2016-11-28T00:21:04.502Z,72998
2016-11-28T00:21:13.153Z,73001
2016-11-28T00:21:21.836Z,73003
2016-11-28T00:21:30.553Z,72999
2016-11-28T00:21:39.277Z,73003
2016-11-28T00:21:47.988Z,73000
2016-11-28T00:21:56.717Z,72997
2016-11-28T00:22:05.416Z,72998
2016-11-28T00:22:14.113Z,72998
2016-11-28T00:22:22.834Z,72999
2016-11-28T00:22:31.487Z,72995
2016-11-28T00:22:40.196Z,72999
2016-11-28T00:22:48.933Z,73001
2016-11-28T00:22:57.634Z,73001
2016-11-28T00:23:06.333Z,73002
2016-11-28T00:23:15.048Z,73002
2016-11-28T00:23:23.742Z,73002
2016-11-28T00:23:32.466Z,72998
2016-11-28T00:23:41.155Z,72998
2016-11-28T00:23:49.830Z,72997
2016-11-28T00:23:58.532Z,72998
2016-11-28T00:24:07.271Z,72997
2016-11-28T00:24:15.979Z,72997
2016-11-28T00:24:24.685Z,73001
2016-11-28T00:24:33.351Z,72998
2016-11-28T00:24:42.069Z,72997
2016-11-28T00:24:50.775Z,72999
2016-11-28T00:25:00.054Z,73000
2016-11-28T00:25:08.754Z,73003
2016-11-28T00:25:17.413Z,73001
2016-11-28T00:25:26.155Z,73001
2016-11-28T00:25:34.914Z,72999
2016-11-28T00:25:43.607Z,72997
2016-11-28T00:25:52.343Z,72998
2016-11-28T00:26:01.077Z,72995
2016-11-28T00:26:09.785Z,72996
2016-11-28T00:26:18.465Z,72998
2016-11-28T00:26:27.180Z,72997
2016-11-28T00:26:35.860Z,72997
2016-11-28T00:26:44.595Z,72995
2016-11-28T00:26:53.256Z,72994
2016-11-28T00:27:01.954Z,72992
2016-11-28T00:27:10.679Z,72992
2016-11-28T00:27:19.404Z,72992
2016-11-28T00:27:28.394Z,72990
2016-11-28T00:27:37.063Z,72994
2016-11-28T00:27:45.756Z,72992
2016-11-28T00:27:54.418Z,72994
2016-11-28T00:28:03.157Z,72993
2016-11-28T00:28:11.888Z,72989
2016-11-28T00:28:20.614Z,72995
2016-11-28T00:28:29.337Z,72995
2016-11-28T00:28:38.082Z,72992
2016-11-28T00:28:46.755Z,72993
2016-11-28T00:28:55.480Z,72996
2016-11-28T00:29:04.225Z,72992
2016-11-28T00:29:12.953Z,72996
2016-11-28T00:29:21.635Z,72992
2016-11-28T00:29:30.334Z,72991
2016-11-28T00:29:39.065Z,72992
2016-11-28T00:29:47.769Z,72993
2016-11-28T00:29:56.436Z,72991
2016-11-28T00:30:05.159Z,72989
2016-11-28T00:30:13.892Z,72992
2016-11-28T00:30:22.590Z,72992
2016-11-28T00:30:31.272Z,72991
2016-11-28T00:30:40.006Z,72992
2016-11-28T00:30:48.667Z,72988
2016-11-28T00:30:57.415Z,72987
2016-11-28T00:31:06.094Z,72989
2016-11-28T00:31:14.788Z,72985
2016-11-28T00:31:23.489Z,72983
2016-11-28T00:31:32.211Z,72983
2016-11-28T00:31:40.911Z,72985
2016-11-28T00:31:49.596Z,72986
2016-11-28T00:31:58.276Z,72986
2016-11-28T00:32:06.986Z,72986
2016-11-28T00:32:15.932Z,72983
2016-11-28T00:32:24.668Z,72983
2016-11-28T00:32:33.355Z,72983
2016-11-28T00:32:42.063Z,72981
2016-11-28T00:32:50.765Z,72979
2016-11-28T00:32:59.458Z,72981
2016-11-28T00:33:08.155Z,72985
2016-11-28T00:33:16.856Z,72982
2016-11-28T00:33:25.594Z,72985
2016-11-28T00:33:34.286Z,72985
2016-11-28T00:33:43.035Z,72987
2016-11-28T00:33:51.731Z,72981
2016-11-28T00:34:00.472Z,72982
2016-11-28T00:34:09.200Z,72981
2016-11-28T00:34:17.922Z,72984
2016-11-28T00:34:26.657Z,72985
2016-11-28T00:34:35.360Z,72982
2016-11-28T00:34:44.089Z,72984
2016-11-28T00:34:52.794Z,72988
2016-11-28T00:35:01.468Z,72985
2016-11-28T00:35:10.161Z,72986
2016-11-28T00:35:18.891Z,72989
2016-11-28T00:35:27.704Z,72989
2016-11-28T00:35:36.401Z,72990
2016-11-28T00:35:45.102Z,72990
2016-11-28T00:35:53.819Z,72987
2016-11-28T00:36:02.536Z,72984
2016-11-28T00:36:11.231Z,72989
2016-11-28T00:36:19.950Z,72986
2016-11-28T00:36:28.673Z,72985
2016-11-28T00:36:37.403Z,72987
2016-11-28T00:36:46.107Z,72986
2016-11-28T00:36:54.815Z,72994
2016-11-28T00:37:03.539Z,72993
2016-11-28T00:37:12.258Z,72994
2016-11-28T00:37:21.015Z,72990
2016-11-28T00:37:29.734Z,72988
2016-11-28T00:37:38.472Z,72985
2016-11-28T00:37:47.207Z,72987
2016-11-28T00:37:55.929Z,72985
2016-11-28T00:38:04.624Z,72989
2016-11-28T00:38:13.340Z,72990
2016-11-28T00:38:22.047Z,72988
2016-11-28T00:38:30.799Z,72985
2016-11-28T00:38:39.518Z,72985
2016-11-28T00:38:48.202Z,72984
2016-11-28T00:38:56.916Z,72983
2016-11-28T00:39:05.649Z,72983
2016-11-28T00:39:14.325Z,72981
2016-11-28T00:39:23.019Z,72984
2016-11-28T00:39:31.724Z,72984
2016-11-28T00:39:40.413Z,72982
2016-11-28T00:39:49.089Z,72985
2016-11-28T00:39:57.808Z,72987
2016-11-28T00:40:06.537Z,72988
2016-11-28T00:40:15.259Z,72984
2016-11-28T00:40:23.998Z,72982
2016-11-28T00:40:32.708Z,72982
2016-11-28T00:40:41.390Z,72981
2016-11-28T00:40:50.071Z,72981
2016-11-28T00:40:58.813Z,72984
2016-11-28T00:41:07.526Z,72977
2016-11-28T00:41:16.189Z,72980
2016-11-28T00:41:24.931Z,72976
2016-11-28T00:41:33.644Z,72981
2016-11-28T00:41:42.318Z,72981
2016-11-28T00:41:51.002Z,72977
2016-11-28T00:41:59.692Z,72978
2016-11-28T00:42:08.676Z,72980
2016-11-28T00:42:17.400Z,72977
2016-11-28T00:42:26.086Z,72981
2016-11-28T00:42:35.062Z,72981
2016-11-28T00:42:43.749Z,72985
2016-11-28T00:42:52.457Z,72982
2016-11-28T00:43:01.193Z,72980
2016-11-28T00:43:09.949Z,72983
2016-11-28T00:43:18.642Z,72981
2016-11-28T00:43:27.392Z,72979
2016-11-28T00:43:36.108Z,72982
2016-11-28T00:43:44.838Z,72980
2016-11-28T00:43:53.513Z,72979
2016-11-28T00:44:02.212Z,72985
2016-11-28T00:44:11.235Z,72982
2016-11-28T00:44:19.957Z,72984
2016-11-28T00:44:28.625Z,72983
2016-11-28T00:44:37.342Z,72987
2016-11-28T00:44:45.995Z,72990
2016-11-28T00:44:54.653Z,72986
2016-11-28T00:45:03.370Z,72981
2016-11-28T00:45:12.372Z,72981
2016-11-28T00:45:21.090Z,72980
2016-11-28T00:45:30.003Z,72983
2016-11-28T00:45:38.663Z,72983
2016-11-28T00:45:47.399Z,72988
2016-11-28T00:45:56.108Z,72986
2016-11-28T00:46:04.842Z,72989
2016-11-28T00:46:13.549Z,72989
2016-11-28T00:46:22.282Z,72985
2016-11-28T00:46:31.285Z,72991
2016-11-28T00:46:40.028Z,72985
2016-11-28T00:46:48.704Z,72990
2016-11-28T00:46:57.384Z,72992
2016-11-28T00:47:06.081Z,72991
2016-11-28T00:47:14.791Z,72990
2016-11-28T00:47:23.471Z,72986
2016-11-28T00:47:32.223Z,72989
2016-11-28T00:47:40.940Z,72988
2016-11-28T00:47:49.648Z,72986
2016-11-28T00:47:58.364Z,72985
2016-11-28T00:48:07.035Z,72981
2016-11-28T00:48:15.758Z,72980
2016-11-28T00:48:24.443Z,72986
2016-11-28T00:48:33.438Z,72987
2016-11-28T00:48:42.161Z,72986
2016-11-28T00:48:50.871Z,72982
2016-11-28T00:48:59.619Z,72982
2016-11-28T00:49:08.375Z,72985
2016-11-28T00:49:17.132Z,72988
2016-11-28T00:49:25.855Z,72988
2016-11-28T00:49:34.571Z,72987
2016-11-28T00:49:43.297Z,72990
2016-11-28T00:49:52.016Z,72984
2016-11-28T00:50:00.785Z,72991
2016-11-28T00:50:09.747Z,72987
2016-11-28T00:50:18.462Z,72986
2016-11-28T00:50:27.195Z,72991
2016-11-28T00:50:35.907Z,72991
2016-11-28T00:50:44.557Z,72993
2016-11-28T00:50:53.254Z,72993
2016-11-28T00:51:01.970Z,72989
2016-11-28T00:51:10.671Z,72991
2016-11-28T00:51:19.347Z,72993
2016-11-28T00:51:28.049Z,72987
2016-11-28T00:51:36.766Z,72985
2016-11-28T00:51:45.503Z,72986
2016-11-28T00:51:54.227Z,72988
2016-11-28T00:52:02.950Z,72985
2016-11-28T00:52:11.659Z,72988
2016-11-28T00:52:20.331Z,72986
2016-11-28T00:52:29.036Z,72988
2016-11-28T00:52:37.738Z,72992
2016-11-28T00:52:46.442Z,72992
2016-11-28T00:52:55.160Z,72988
2016-11-28T00:53:03.911Z,72990
2016-11-28T00:53:12.607Z,72989
2016-11-28T00:53:21.306Z,72986
2016-11-28T00:53:29.985Z,72981
2016-11-28T00:53:38.722Z,72990
2016-11-28T00:53:47.439Z,72986
2016-11-28T00:53:56.164Z,72990
2016-11-28T00:54:04.887Z,72991
2016-11-28T00:54:13.619Z,72990
2016-11-28T00:54:22.363Z,72990
2016-11-28T00:54:31.085Z,72994
2016-11-28T00:54:39.800Z,72987
2016-11-28T00:54:48.523Z,72988
2016-11-28T00:54:57.238Z,72991
2016-11-28T00:55:05.944Z,72987
2016-11-28T00:55:14.654Z,72990
2016-11-28T00:55:23.661Z,72990
2016-11-28T00:55:32.339Z,72989
2016-11-28T00:55:41.060Z,72988
2016-11-28T00:55:49.755Z,72984
2016-11-28T00:55:58.477Z,72985
2016-11-28T00:56:07.198Z,72982
2016-11-28T00:56:15.917Z,72983
2016-11-28T00:56:24.943Z,72985
2016-11-28T00:56:33.641Z,72985
2016-11-28T00:56:42.339Z,72986
2016-11-28T00:56:51.053Z,72987
2016-11-28T00:56:59.759Z,72987
2016-11-28T00:57:08.518Z,72987
2016-11-28T00:57:17.257Z,72985
2016-11-28T00:57:25.955Z,72988
2016-11-28T00:57:34.629Z,72989
2016-11-28T00:57:43.349Z,72990
2016-11-28T00:57:52.108Z,72989
2016-11-28T00:58:00.816Z,72989
2016-11-28T00:58:09.519Z,72989
2016-11-28T00:58:18.265Z,72985
2016-11-28T00:58:26.959Z,72987
2016-11-28T00:58:35.617Z,72989
2016-11-28T00:58:44.318Z,72984
2016-11-28T00:58:53.012Z,72987
2016-11-28T00:59:01.690Z,72991
2016-11-28T00:59:10.366Z,72989
2016-11-28T00:59:19.022Z,72989
2016-11-28T00:59:27.720Z,72992
2016-11-28T00:59:36.438Z,72991
2016-11-28T00:59:45.130Z,72991
2016-11-28T00:59:53.834Z,72991
2016-11-28T01:00:02.539Z,72990
2016-11-28T01:00:11.560Z,72988
2016-11-28T01:00:20.316Z,72994
2016-11-28T01:00:29.029Z,72993
2016-11-28T01:00:37.755Z,72992
2016-11-28T01:00:46.472Z,72992
2016-11-28T01:00:55.199Z,72993
2016-11-28T01:01:03.903Z,72994
2016-11-28T01:01:12.592Z,72994
2016-11-28T01:01:21.295Z,72992
2016-11-28T01:01:29.986Z,72988
2016-11-28T01:01:38.642Z,72992
2016-11-28T01:01:47.340Z,72991
2016-11-28T01:01:56.013Z,72990
2016-11-28T01:02:04.667Z,72989
2016-11-28T01:02:13.343Z,72991
2016-11-28T01:02:22.037Z,72988
2016-11-28T01:02:30.717Z,72990
2016-11-28T01:02:39.469Z,72991
2016-11-28T01:02:48.185Z,72993
2016-11-28T01:02:56.867Z,72990
2016-11-28T01:03:05.584Z,72995
2016-11-28T01:03:14.345Z,72993
2016-11-28T01:03:23.080Z,72991
2016-11-28T01:03:31.825Z,72990
2016-11-28T01:03:40.542Z,72990
2016-11-28T01:03:49.257Z,72990
2016-11-28T01:03:57.995Z,72993
2016-11-28T01:04:06.692Z,72996
2016-11-28T01:04:15.409Z,72991
2016-11-28T01:04:24.115Z,72991
2016-11-28T01:04:32.780Z,72995
2016-11-28T01:04:41.488Z,72991
2016-11-28T01:04:50.182Z,72993
2016-11-28T01:04:58.856Z,72993
2016-11-28T01:05:07.841Z,72992
2016-11-28T01:05:16.563Z,72996
2016-11-28T01:05:25.272Z,72996
2016-11-28T01:05:33.963Z,72991
2016-11-28T01:05:42.667Z,72993
2016-11-28T01:05:51.375Z,72993
2016-11-28T01:06:00.071Z,72992
2016-11-28T01:06:08.777Z,72993
2016-11-28T01:06:17.496Z,72993
2016-11-28T01:06:26.237Z,72995
2016-11-28T01:06:34.934Z,72995
2016-11-28T01:06:43.652Z,72997
2016-11-28T01:06:52.364Z,73002
2016-11-28T01:07:01.059Z,72994
2016-11-28T01:07:09.719Z,72996
2016-11-28T01:07:18.462Z,72994
2016-11-28T01:07:27.148Z,72992
2016-11-28T01:07:35.874Z,72994
2016-11-28T01:07:44.634Z,72999
2016-11-28T01:07:53.294Z,72997
2016-11-28T01:08:02.030Z,72998
2016-11-28T01:08:10.713Z,72997
2016-11-28T01:08:19.408Z,72995
2016-11-28T01:08:28.123Z,72993
2016-11-28T01:08:36.863Z,72993
2016-11-28T01:08:45.576Z,72998
2016-11-28T01:08:54.266Z,72993
2016-11-28T01:09:03.308Z,72994
2016-11-28T01:09:11.994Z,72997
2016-11-28T01:09:20.658Z,72993
2016-11-28T01:09:29.376Z,72995
2016-11-28T01:09:38.093Z,72997
2016-11-28T01:09:46.811Z,72996
2016-11-28T01:09:55.526Z,72995
2016-11-28T01:10:04.189Z,72993
2016-11-28T01:10:12.864Z,72996
2016-11-28T01:10:21.585Z,72993
2016-11-28T01:10:30.249Z,72999
2016-11-28T01:10:38.969Z,72994
2016-11-28T01:10:47.728Z,72995
2016-11-28T01:10:56.460Z,73000
2016-11-28T01:11:05.148Z,72999
2016-11-28T01:11:13.844Z,72999
2016-11-28T01:11:22.561Z,72996
2016-11-28T01:11:31.318Z,72995
2016-11-28T01:11:40.042Z,72993
2016-11-28T01:11:48.744Z,72999
2016-11-28T01:11:57.471Z,72996
2016-11-28T01:12:06.227Z,72996
2016-11-28T01:12:14.952Z,72995
2016-11-28T01:12:23.649Z,73000
2016-11-28T01:12:32.360Z,72997
2016-11-28T01:12:41.050Z,72994
2016-11-28T01:12:49.754Z,72993
2016-11-28T01:12:58.452Z,72996
2016-11-28T01:13:07.179Z,72998
2016-11-28T01:13:15.876Z,73001
2016-11-28T01:13:24.599Z,72993
2016-11-28T01:13:33.276Z,72994
2016-11-28T01:13:41.990Z,72992
2016-11-28T01:13:50.710Z,72993
2016-11-28T01:13:59.415Z,73000
2016-11-28T01:14:08.112Z,72999
2016-11-28T01:14:16.873Z,72997
2016-11-28T01:14:25.605Z,72995
2016-11-28T01:14:34.304Z,72999
2016-11-28T01:14:43.000Z,72998
2016-11-28T01:14:51.723Z,72998
2016-11-28T01:15:00.730Z,72992
2016-11-28T01:15:09.428Z,72994
2016-11-28T01:15:18.188Z,72992
2016-11-28T01:15:26.914Z,72991
2016-11-28T01:15:35.632Z,72995
2016-11-28T01:15:44.348Z,72995
2016-11-28T01:15:53.073Z,72997
2016-11-28T01:16:01.772Z,72994
2016-11-28T01:16:10.461Z,72996
2016-11-28T01:16:19.156Z,72995
2016-11-28T01:16:27.860Z,72997
2016-11-28T01:16:36.556Z,73001
2016-11-28T01:16:45.268Z,73001
2016-11-28T01:16:53.940Z,72998
2016-11-28T01:17:02.641Z,72996
2016-11-28T01:17:11.338Z,72997
2016-11-28T01:17:20.056Z,72996
2016-11-28T01:17:28.752Z,72995
2016-11-28T01:17:37.472Z,73001
2016-11-28T01:17:46.166Z,72998
2016-11-28T01:17:54.866Z,73000
2016-11-28T01:18:03.594Z,72998
2016-11-28T01:18:12.291Z,73001
2016-11-28T01:18:20.986Z,72998
2016-11-28T01:18:29.670Z,73000
2016-11-28T01:18:38.378Z,72999
2016-11-28T01:18:47.076Z,72998
2016-11-28T01:18:55.737Z,73000
2016-11-28T01:19:04.458Z,73001
2016-11-28T01:19:13.175Z,72996
2016-11-28T01:19:21.899Z,72996
2016-11-28T01:19:30.621Z,72991
2016-11-28T01:19:39.318Z,72992
2016-11-28T01:19:48.055Z,72992
2016-11-28T01:19:56.745Z,72993
2016-11-28T01:20:05.463Z,72991
2016-11-28T01:20:14.168Z,72993
2016-11-28T01:20:22.929Z,72989
2016-11-28T01:20:31.664Z,72988
2016-11-28T01:20:40.351Z,72990
2016-11-28T01:20:49.048Z,72990
2016-11-28T01:20:57.730Z,72995
2016-11-28T01:21:06.443Z,72993
2016-11-28T01:21:15.169Z,72993
2016-11-28T01:21:23.873Z,72996
2016-11-28T01:21:32.605Z,72993
2016-11-28T01:21:41.568Z,72994
2016-11-28T01:21:50.271Z,72990
2016-11-28T01:21:58.981Z,72989
2016-11-28T01:22:07.719Z,72992
2016-11-28T01:22:16.450Z,72991
2016-11-28T01:22:25.130Z,72991
2016-11-28T01:22:33.796Z,72997
2016-11-28T01:22:42.510Z,72996
2016-11-28T01:22:51.192Z,72992
2016-11-28T01:22:59.880Z,72992
2016-11-28T01:23:08.573Z,72994
2016-11-28T01:23:17.302Z,72997
2016-11-28T01:23:26.015Z,72994
2016-11-28T01:23:34.710Z,72996
2016-11-28T01:23:43.448Z,72998
2016-11-28T01:23:52.151Z,72995
2016-11-28T01:24:01.136Z,72994
2016-11-28T01:24:09.834Z,72999
2016-11-28T01:24:18.576Z,72994
2016-11-28T01:24:27.271Z,72994
2016-11-28T01:24:35.956Z,72994
2016-11-28T01:24:44.676Z,72997
2016-11-28T01:24:53.377Z,72998
2016-11-28T01:25:02.096Z,72996
2016-11-28T01:25:10.779Z,72992
2016-11-28T01:25:19.509Z,72991
2016-11-28T01:25:28.232Z,72990
2016-11-28T01:25:36.952Z,72996
2016-11-28T01:25:45.681Z,72997
2016-11-28T01:25:54.385Z,72990
2016-11-28T01:26:03.411Z,72988
2016-11-28T01:26:12.114Z,72990
2016-11-28T01:26:20.799Z,72990
2016-11-28T01:26:29.517Z,72993
2016-11-28T01:26:38.219Z,72995
2016-11-28T01:26:46.904Z,72989
2016-11-28T01:26:55.601Z,72994
2016-11-28T01:27:04.309Z,72994
2016-11-28T01:27:13.022Z,72996
2016-11-28T01:27:21.726Z,72995
2016-11-28T01:27:30.417Z,72994
2016-11-28T01:27:39.120Z,72993
2016-11-28T01:27:47.842Z,72988
2016-11-28T01:27:56.590Z,72992
2016-11-28T01:28:05.287Z,72993
2016-11-28T01:28:14.001Z,72992
2016-11-28T01:28:22.966Z,72994
2016-11-28T01:28:31.670Z,72993
2016-11-28T01:28:40.407Z,72992
2016-11-28T01:28:49.393Z,72992
2016-11-28T01:28:58.060Z,72991
2016-11-28T01:29:06.755Z,72992
2016-11-28T01:29:15.459Z,72989
2016-11-28T01:29:24.150Z,72992
2016-11-28T01:29:32.847Z,72991
2016-11-28T01:29:41.586Z,72993
2016-11-28T01:29:50.326Z,72992
2016-11-28T01:29:59.050Z,72995
2016-11-28T01:30:07.800Z,72994
2016-11-28T01:30:16.514Z,72992
2016-11-28T01:30:25.211Z,72994
2016-11-28T01:30:33.914Z,72989
2016-11-28T01:30:42.649Z,72995
2016-11-28T01:30:51.365Z,72990
2016-11-28T01:31:00.085Z,72992
2016-11-28T01:31:08.781Z,72998
2016-11-28T01:31:17.513Z,72991
2016-11-28T01:31:26.212Z,72993
2016-11-28T01:31:34.916Z,72989
2016-11-28T01:31:43.668Z,72995
2016-11-28T01:31:52.365Z,72992
2016-11-28T01:32:01.060Z,72992
2016-11-28T01:32:09.754Z,72989
2016-11-28T01:32:18.434Z,72990
2016-11-28T01:32:27.151Z,72992
2016-11-28T01:32:35.869Z,72986
2016-11-28T01:32:44.545Z,72991
2016-11-28T01:32:53.282Z,72988
2016-11-28T01:33:02.007Z,72988
2016-11-28T01:33:10.672Z,72989
2016-11-28T01:33:19.377Z,72990
2016-11-28T01:33:28.148Z,72989
2016-11-28T01:33:36.851Z,72987
2016-11-28T01:33:45.566Z,72987
2016-11-28T01:33:54.341Z,72991
2016-11-28T01:34:03.051Z,72996
2016-11-28T01:34:11.745Z,72985
2016-11-28T01:34:20.468Z,72987
2016-11-28T01:34:29.199Z,72993
2016-11-28T01:34:37.928Z,72991
2016-11-28T01:34:46.613Z,72991
2016-11-28T01:34:55.299Z,72993
2016-11-28T01:35:03.976Z,72990
2016-11-28T01:35:12.679Z,72989
2016-11-28T01:35:21.368Z,72994
2016-11-28T01:35:30.319Z,72986
2016-11-28T01:35:38.991Z,72988
2016-11-28T01:35:47.688Z,72994
2016-11-28T01:35:56.371Z,72995
2016-11-28T01:36:05.080Z,72993
2016-11-28T01:36:13.775Z,72993
2016-11-28T01:36:22.484Z,72988
2016-11-28T01:36:31.172Z,72993
2016-11-28T01:36:39.866Z,72991
2016-11-28T01:36:48.557Z,72992
2016-11-28T01:36:57.247Z,72993
2016-11-28T01:37:05.949Z,72991
2016-11-28T01:37:14.672Z,72990
2016-11-28T01:37:23.387Z,72997
2016-11-28T01:37:32.125Z,72991
2016-11-28T01:37:40.840Z,72998
2016-11-28T01:37:49.542Z,72993
2016-11-28T01:37:58.239Z,72994
2016-11-28T01:38:06.978Z,72987
2016-11-28T01:38:15.672Z,72996
2016-11-28T01:38:24.382Z,72991
2016-11-28T01:38:33.109Z,72991
2016-11-28T01:38:41.823Z,72991
2016-11-28T01:38:50.521Z,72997
2016-11-28T01:38:59.213Z,72994
2016-11-28T01:39:07.916Z,72993
2016-11-28T01:39:16.597Z,72991
2016-11-28T01:39:25.332Z,73001
2016-11-28T01:39:34.052Z,72996
2016-11-28T01:39:42.768Z,72990
2016-11-28T01:39:51.499Z,72988
2016-11-28T01:40:00.495Z,72998
2016-11-28T01:40:09.173Z,72992
2016-11-28T01:40:17.838Z,72988
2016-11-28T01:40:26.532Z,72992
2016-11-28T01:40:35.185Z,72991
2016-11-28T01:40:43.889Z,72989
2016-11-28T01:40:52.627Z,72993
2016-11-28T01:41:01.647Z,72993
2016-11-28T01:41:10.362Z,72990
2016-11-28T01:41:19.075Z,72990
2016-11-28T01:41:27.795Z,72989
2016-11-28T01:41:36.494Z,72994
2016-11-28T01:41:45.221Z,72991
2016-11-28T01:41:53.952Z,72993
2016-11-28T01:42:02.636Z,72990
2016-11-28T01:42:11.311Z,72992
2016-11-28T01:42:20.028Z,72993
2016-11-28T01:42:28.724Z,72991
2016-11-28T01:42:37.423Z,72995
2016-11-28T01:42:46.117Z,72997
2016-11-28T01:42:54.813Z,72994
2016-11-28T01:43:03.538Z,72994
2016-11-28T01:43:12.231Z,72991
2016-11-28T01:43:20.920Z,72991
2016-11-28T01:43:29.660Z,72996
2016-11-28T01:43:38.333Z,72993
2016-11-28T01:43:47.040Z,72994
2016-11-28T01:43:55.755Z,72992
2016-11-28T01:44:04.474Z,72996
2016-11-28T01:44:13.192Z,72995
2016-11-28T01:44:21.922Z,72997
2016-11-28T01:44:30.583Z,73000
2016-11-28T01:44:39.339Z,72993
2016-11-28T01:44:48.017Z,72992
2016-11-28T01:44:56.731Z,72996
2016-11-28T01:45:05.461Z,72997
2016-11-28T01:45:14.227Z,72995
2016-11-28T01:45:22.985Z,72994
2016-11-28T01:45:31.685Z,72995
2016-11-28T01:45:40.377Z,72996
2016-11-28T01:45:49.091Z,72995
2016-11-28T01:45:57.803Z,72996
2016-11-28T01:46:06.525Z,72992
2016-11-28T01:46:15.263Z,72996
2016-11-28T01:46:23.993Z,72994
2016-11-28T01:46:32.691Z,72994
2016-11-28T01:46:41.412Z,72996
2016-11-28T01:46:50.131Z,72992
2016-11-28T01:46:58.824Z,72991
2016-11-28T01:47:07.527Z,72992
2016-11-28T01:47:16.260Z,72993
2016-11-28T01:47:24.973Z,72996
2016-11-28T01:47:33.666Z,72997
2016-11-28T01:47:42.362Z,72991
2016-11-28T01:47:51.079Z,72990
2016-11-28T01:47:59.759Z,72993
2016-11-28T01:48:08.455Z,72991
2016-11-28T01:48:17.187Z,72992
2016-11-28T01:48:25.893Z,72990
2016-11-28T01:48:34.564Z,72991
2016-11-28T01:48:43.302Z,72992
2016-11-28T01:48:52.021Z,72989
2016-11-28T01:49:01.006Z,72991
2016-11-28T01:49:09.679Z,72995
2016-11-28T01:49:18.386Z,72989
2016-11-28T01:49:27.057Z,72988
2016-11-28T01:49:35.793Z,72990
2016-11-28T01:49:44.591Z,72989
2016-11-28T01:49:53.307Z,72995
2016-11-28T01:50:01.996Z,72989
2016-11-28T01:50:10.757Z,72993
2016-11-28T01:50:19.423Z,72992
2016-11-28T01:50:28.127Z,72989
2016-11-28T01:50:36.830Z,72987
2016-11-28T01:50:45.521Z,72991
2016-11-28T01:50:54.179Z,72990
2016-11-28T01:51:02.878Z,72993
2016-11-28T01:51:11.638Z,72988
2016-11-28T01:51:20.358Z,72992
2016-11-28T01:51:29.068Z,72986
2016-11-28T01:51:37.740Z,72985
2016-11-28T01:51:46.468Z,72991
2016-11-28T01:51:55.203Z,72987
2016-11-28T01:52:03.929Z,72986
2016-11-28T01:52:12.625Z,72993
2016-11-28T01:52:21.358Z,72990